Time;durP1;ratioP1;P1;durP2;ratioP2;P2;SDS_P1;SDS_P2;PMS_P1;PMS_P2;Temp;Humidity;BMP_temperature;BMP_pressure;BME280_temperature;BME280_humidity;BME280_pressure;Samples;Min_cycle;Max_cycle;Signal;HPM_P1;HPM_P2
2023/04/28 00:01:26;;;;;;;12.32;7.65;;;;;;;5.54;60.76;97952.50;10362672;28;20128;-52
2023/04/28 00:06:25;;;;;;;11.98;6.47;;;;;;;5.46;60.76;97953.16;10362608;28;20033;-50
2023/04/28 00:11:24;;;;;;;10.23;6.07;;;;;;;5.05;64.64;97956.50;10362700;28;20131;-52
2023/04/28 00:16:23;;;;;;;10.52;5.78;;;;;;;5.10;63.73;97949.75;10363049;28;20056;-53
2023/04/28 00:21:22;;;;;;;8.88;5.65;;;;;;;5.04;64.70;97959.03;10362768;28;20469;-53
2023/04/28 00:26:21;;;;;;;8.90;5.40;;;;;;;4.87;64.23;97956.03;10361789;28;20120;-52
2023/04/28 00:31:20;;;;;;;8.13;5.10;;;;;;;4.85;64.40;97960.25;10362281;28;20107;-53
2023/04/28 00:36:19;;;;;;;7.10;6.40;;;;;;;4.72;64.65;97966.81;10361675;28;20120;-52
2023/04/28 00:41:18;;;;;;;7.78;4.88;;;;;;;4.68;64.50;97960.69;10360837;28;20084;-52
2023/04/28 00:46:21;;;;;;;9.93;5.30;;;;;;;4.62;64.65;97959.66;10359130;28;20124;-53
2023/04/28 00:51:21;;;;;;;8.95;5.38;;;;;;;4.55;65.69;97966.38;10361250;28;20590;-50
2023/04/28 00:56:20;;;;;;;9.60;6.90;;;;;;;4.50;66.44;97970.50;10361007;28;20124;-52
2023/04/28 01:01:19;;;;;;;;;;;;;;;4.39;67.91;97977.09;10361142;28;20063;-51
2023/04/28 01:06:19;;;;;;;11.80;8.13;;;;;;;4.31;69.02;97978.56;10360173;28;19911;-50
2023/04/28 01:11:19;;;;;;;12.70;7.53;;;;;;;4.12;70.40;97980.63;10359136;28;20072;-52
2023/04/28 01:16:18;;;;;;;11.57;7.13;;;;;;;4.11;69.57;97985.72;10360114;28;20163;-52
2023/04/28 01:21:27;;;;;;;;;;;;;;;3.89;70.52;97981.66;10360936;28;20076;-52
2023/04/28 01:26:26;;;;;;;12.80;7.97;;;;;;;3.66;71.17;97958.78;10360631;28;19952;-53
2023/04/28 01:31:25;;;;;;;11.63;7.28;;;;;;;3.66;70.27;97966.47;10352563;28;20469;-52
2023/04/28 01:36:27;;;;;;;12.98;8.02;;;;;;;3.77;69.91;97992.44;10354495;28;20056;-50
2023/04/28 01:41:26;;;;;;;12.82;8.05;;;;;;;3.73;70.55;97991.50;10360756;28;20083;-52
2023/04/28 01:46:25;;;;;;;11.80;7.45;;;;;;;3.73;70.04;97991.50;10359218;28;20080;-53
2023/04/28 01:51:24;;;;;;;15.43;8.70;;;;;;;3.67;70.49;97988.72;10359732;28;20057;-52
2023/04/28 01:56:23;;;;;;;15.15;9.30;;;;;;;3.53;71.71;97982.31;10359403;28;20412;-52
2023/04/28 02:01:22;;;;;;;13.93;9.43;;;;;;;3.36;73.65;97995.50;10365970;28;20116;-53
2023/04/28 02:06:21;;;;;;;12.70;8.05;;;;;;;3.35;73.97;97998.00;10368728;28;20029;-50
2023/04/28 02:11:20;;;;;;;15.52;8.65;;;;;;;3.16;75.12;98001.69;10371136;28;20463;-50
2023/04/28 02:16:19;;;;;;;12.85;8.32;;;;;;;3.30;74.16;98012.38;10370084;28;20033;-53
2023/04/28 02:21:18;;;;;;;17.48;8.85;;;;;;;3.31;73.25;98006.41;10370734;28;20068;-51
2023/04/28 02:26:16;;;;;;;16.08;8.63;;;;;;;3.23;73.32;97999.34;10371414;28;20048;-52
2023/04/28 02:31:15;;;;;;;11.07;7.43;;;;;;;3.27;73.35;98013.16;10369172;28;20064;-50
2023/04/28 02:36:14;;;;;;;13.10;7.80;;;;;;;3.26;72.85;98021.69;10365901;28;20279;-51
2023/04/28 02:41:14;;;;;;;9.93;6.68;;;;;;;3.27;72.51;98026.00;10366077;28;20107;-50
2023/04/28 02:46:13;;;;;;;17.95;10.85;;;;;;;3.07;72.49;97994.56;10366612;28;20493;-53
2023/04/28 02:51:13;;;;;;;18.10;10.88;;;;;;;2.41;74.02;97930.88;10364904;28;20508;-50
2023/04/28 02:56:11;;;;;;;11.52;7.13;;;;;;;2.97;74.56;98039.53;10365778;28;20128;-52
2023/04/28 03:01:10;;;;;;;12.52;7.25;;;;;;;2.92;75.02;98051.34;10365303;28;20059;-52
2023/04/28 03:06:09;;;;;;;11.55;6.05;;;;;;;2.78;75.55;98057.69;10364762;28;20029;-50
2023/04/28 03:11:09;;;;;;;11.90;6.85;;;;;;;2.54;75.98;98058.56;10367845;28;20041;-53
2023/04/28 03:16:08;;;;;;;13.40;7.03;;;;;;;2.45;77.12;98055.69;10368300;28;20087;-51
2023/04/28 03:21:08;;;;;;;14.13;7.60;;;;;;;2.57;76.04;98063.81;10368230;28;20035;-52
2023/04/28 03:26:06;;;;;;;;;;;;;;;2.62;75.62;98075.91;10369779;28;20114;-52
2023/04/28 03:31:05;;;;;;;12.68;7.75;;;;;;;2.69;74.77;98085.56;10367585;28;19912;-52
2023/04/28 03:36:05;;;;;;;12.55;7.22;;;;;;;2.33;75.51;98052.69;10367405;28;20663;-51
2023/04/28 03:41:04;;;;;;;12.13;7.60;;;;;;;2.47;75.87;98106.97;10364644;28;20109;-52
2023/04/28 03:46:03;;;;;;;;;;;;;;;2.47;76.29;98115.53;10364592;28;20490;-52
2023/04/28 03:51:02;;;;;;;15.10;9.35;;;;;;;2.27;76.17;98088.31;10363293;28;19956;-52
2023/04/28 03:56:01;;;;;;;16.65;8.45;;;;;;;2.51;76.02;98129.31;10362448;28;20107;-52
2023/04/28 04:01:00;;;;;;;14.77;7.55;;;;;;;2.64;75.82;98140.88;10363061;28;20071;-52
2023/04/28 04:05:59;;;;;;;;;;;;;;;2.68;75.54;98137.63;10363594;28;20072;-53
2023/04/28 04:10:58;;;;;;;14.20;8.50;;;;;;;2.80;75.75;98143.19;10367118;28;20019;-52
2023/04/28 04:15:57;;;;;;;13.15;8.65;;;;;;;2.96;75.90;98142.03;10366310;28;20048;-53
2023/04/28 04:20:56;;;;;;;18.80;11.63;;;;;;;3.12;75.85;98146.00;10366151;28;20075;-52
2023/04/28 04:25:55;;;;;;;18.70;11.27;;;;;;;3.29;75.37;98152.59;10365987;28;20033;-53
2023/04/28 04:30:54;;;;;;;16.30;10.93;;;;;;;3.34;75.51;98153.59;10365773;28;20543;-52
2023/04/28 04:35:53;;;;;;;22.30;14.05;;;;;;;3.20;75.30;98091.59;10346926;28;20450;-51
2023/04/28 04:40:52;;;;;;;16.23;10.55;;;;;;;3.64;75.21;98153.75;10363813;28;20554;-53
2023/04/28 04:45:51;;;;;;;18.00;10.65;;;;;;;3.72;74.91;98143.72;10360396;28;20056;-52
2023/04/28 04:50:50;;;;;;;21.48;11.85;;;;;;;3.99;74.22;98150.59;10359658;28;20047;-50
2023/04/28 04:55:49;;;;;;;17.25;11.32;;;;;;;4.18;73.49;98150.31;10359827;28;20037;-53
2023/04/28 05:00:48;;;;;;;17.33;10.40;;;;;;;4.25;73.06;98157.38;10359357;28;20028;-50
2023/04/28 05:05:47;;;;;;;24.13;13.05;;;;;;;4.28;72.27;98165.19;10361449;28;20467;-52
2023/04/28 05:10:46;;;;;;;22.38;12.10;;;;;;;4.41;72.20;98165.56;10364470;28;20068;-51
2023/04/28 05:15:45;;;;;;;22.55;13.27;;;;;;;4.57;71.63;98160.06;10364481;28;20044;-53
2023/04/28 05:20:44;;;;;;;20.25;12.32;;;;;;;4.72;70.93;98163.03;10362668;28;20039;-53
2023/04/28 05:25:43;;;;;;;23.45;12.77;;;;;;;4.77;69.35;98162.31;10358321;28;20094;-52
2023/04/28 05:30:43;;;;;;;19.17;9.45;;;;;;;4.97;69.35;98156.06;10357712;28;20033;-53
2023/04/28 05:35:42;;;;;;;15.75;9.15;;;;;;;5.10;67.73;98154.69;10362465;28;20067;-52
2023/04/28 05:40:41;;;;;;;16.58;10.45;;;;;;;5.29;67.23;98149.19;10365842;28;20032;-53
2023/04/28 05:45:40;;;;;;;13.07;8.88;;;;;;;5.52;65.93;98154.06;10369227;28;20068;-51
2023/04/28 05:50:39;;;;;;;15.93;9.85;;;;;;;5.82;64.63;98153.97;10367136;28;20045;-52
2023/04/28 05:55:38;;;;;;;;;;;;;;;5.98;62.04;98152.63;10367988;28;20443;-51
2023/04/28 06:00:37;;;;;;;13.93;7.82;;;;;;;6.15;61.10;98158.16;10366268;28;20450;-53
2023/04/28 06:05:36;;;;;;;9.95;6.93;;;;;;;6.28;61.60;98162.78;10363872;28;20128;-52
2023/04/28 06:10:35;;;;;;;10.18;6.05;;;;;;;6.35;60.79;98154.34;10366952;28;20136;-50
2023/04/28 06:15:34;;;;;;;8.43;5.53;;;;;;;6.52;59.31;98159.00;10368835;28;20581;-53
2023/04/28 06:20:34;;;;;;;8.50;5.38;;;;;;;6.71;57.60;98149.94;10365506;28;20123;-53
2023/04/28 06:25:35;;;;;;;7.55;4.95;;;;;;;7.02;57.54;98154.84;10357459;28;20163;-52
2023/04/28 06:30:34;;;;;;;8.48;5.82;;;;;;;7.21;56.58;98147.44;10363916;28;20120;-52
2023/04/28 06:35:37;;;;;;;;;;;;;;;7.53;54.79;98149.78;10365848;28;20067;-52
2023/04/28 06:40:36;;;;;;;9.88;5.28;;;;;;;7.92;55.71;98143.53;10361338;28;20067;-53
2023/04/28 06:45:35;;;;;;;12.10;6.00;;;;;;;8.07;53.58;98148.94;10367105;28;20528;-53
2023/04/28 06:50:35;;;;;;;;;;;;;;;8.26;52.10;98150.09;10368334;28;20111;-52
2023/04/28 06:55:34;;;;;;;12.10;6.20;;;;;;;8.42;51.31;98144.28;10368330;28;20371;-53
2023/04/28 07:00:34;;;;;;;8.82;5.80;;;;;;;8.70;50.84;98132.56;10366471;28;20065;-52
2023/04/28 07:05:35;;;;;;;11.38;5.65;;;;;;;8.91;48.97;98134.56;10361043;28;20075;-52
2023/04/28 07:10:34;;;;;;;9.38;4.15;;;;;;;9.06;48.07;98105.38;10366132;28;20061;-52
2023/04/28 07:15:33;;;;;;;9.77;5.25;;;;;;;9.43;46.99;98136.00;10367838;28;20031;-52
2023/04/28 07:20:32;;;;;;;10.43;4.05;;;;;;;9.60;44.27;98128.38;10367139;28;20073;-53
2023/04/28 07:25:31;;;;;;;5.38;3.40;;;;;;;9.88;44.64;98119.97;10368264;28;20076;-52
2023/04/28 07:30:30;;;;;;;5.60;3.50;;;;;;;10.28;44.66;98125.41;10367255;28;20064;-53
2023/04/28 07:35:29;;;;;;;6.28;3.45;;;;;;;10.08;41.08;98083.81;10368245;28;20068;-53
2023/04/28 07:40:28;;;;;;;7.93;3.30;;;;;;;10.49;40.54;98126.41;10367462;28;20060;-53
2023/04/28 07:45:27;;;;;;;5.22;3.10;;;;;;;10.75;40.13;98124.81;10367800;28;20072;-53
2023/04/28 07:50:26;;;;;;;6.28;3.70;;;;;;;10.88;41.42;98123.16;10366922;28;20040;-53
2023/04/28 07:55:25;;;;;;;6.78;3.03;;;;;;;11.01;40.09;98122.34;10365684;28;20052;-53
2023/04/28 08:00:25;;;;;;;;;;;;;;;11.15;38.07;98117.19;10366999;28;20542;-53
2023/04/28 08:05:24;;;;;;;4.27;2.97;;;;;;;11.00;38.15;98123.19;10367397;28;20661;-52
2023/04/28 08:10:25;;;;;;;4.68;2.80;;;;;;;11.17;37.51;98119.78;10364465;28;20570;-51
2023/04/28 08:15:26;;;;;;;5.88;3.45;;;;;;;11.18;38.41;98112.00;10362563;28;20184;-51
2023/04/28 08:20:25;;;;;;;6.50;3.30;;;;;;;11.36;38.57;98097.28;10364660;28;20095;-50
2023/04/28 08:25:24;;;;;;;4.95;3.28;;;;;;;11.86;39.48;98106.88;10363918;28;20419;-51
2023/04/28 08:30:23;;;;;;;6.10;3.55;;;;;;;12.22;38.74;98100.75;10365863;28;20060;-51
2023/04/28 08:35:22;;;;;;;5.82;3.70;;;;;;;11.86;37.99;98073.91;10365811;28;20477;-51
2023/04/28 08:40:23;;;;;;;4.65;3.10;;;;;;;12.03;38.71;98099.03;10364795;28;20482;-51
2023/04/28 08:45:24;;;;;;;6.32;3.67;;;;;;;12.22;40.49;98092.94;10366781;28;20140;-51
2023/04/28 08:50:25;;;;;;;5.30;3.63;;;;;;;12.39;38.56;98082.53;10364470;28;20127;-53
2023/04/28 08:55:27;;;;;;;7.38;4.00;;;;;;;12.67;40.09;98069.41;10358183;28;20132;-53
2023/04/28 09:00:27;;;;;;;6.40;3.30;;;;;;;12.64;37.81;98061.59;10363311;28;20567;-53
2023/04/28 09:05:26;;;;;;;8.25;3.63;;;;;;;12.49;36.94;98075.56;10364634;28;20076;-54
2023/04/28 09:10:26;;;;;;;7.10;3.50;;;;;;;12.74;36.12;98078.91;10363546;28;20064;-53
2023/04/28 09:15:30;;;;;;;7.60;3.75;;;;;;;13.01;36.73;98061.44;10365407;28;20080;-53
2023/04/28 09:20:30;;;;;;;7.70;3.50;;;;;;;13.31;35.67;98044.72;10364032;28;20884;-53
2023/04/28 09:25:30;;;;;;;6.10;3.00;;;;;;;13.14;34.52;98043.09;10362997;28;20099;-53
2023/04/28 09:30:41;;;;;;;4.88;3.10;;;;;;;12.74;34.83;98000.78;10361810;28;20049;-53
2023/04/28 09:35:42;;;;;;;4.65;3.20;;;;;;;13.14;34.42;98037.91;10361223;28;20152;-53
2023/04/28 09:40:51;;;;;;;6.97;3.47;;;;;;;13.30;34.69;98032.56;10363586;28;20574;-53
2023/04/28 09:45:51;;;;;;;5.72;3.15;;;;;;;13.55;35.97;98017.63;10363755;28;20061;-54
2023/04/28 09:50:50;;;;;;;8.32;3.55;;;;;;;13.54;34.82;98029.81;10363640;28;20590;-54
2023/04/28 09:55:52;;;;;;;6.60;3.17;;;;;;;13.50;34.36;98035.03;10363395;28;20131;-53
2023/04/28 10:00:53;;;;;;;4.32;2.88;;;;;;;13.04;33.90;97999.72;10363478;28;20104;-53
2023/04/28 10:05:52;;;;;;;6.18;3.25;;;;;;;13.37;34.39;98008.16;10363272;28;20065;-53
2023/04/28 10:10:53;;;;;;;4.60;2.80;;;;;;;13.51;33.83;98001.09;10363467;28;20075;-54
2023/04/28 10:15:56;;;;;;;7.20;3.35;;;;;;;13.50;34.02;98002.00;10363683;28;20075;-51
2023/04/28 10:20:59;;;;;;;4.85;2.72;;;;;;;13.81;33.80;98009.56;10367335;28;20073;-51
2023/04/28 10:25:58;;;;;;;6.72;3.05;;;;;;;13.83;32.80;98007.81;10369986;28;20132;-54
2023/04/28 10:31:11;;;;;;;7.35;3.20;;;;;;;13.88;33.20;97982.53;10372239;28;20483;-54
2023/04/28 10:36:30;;;;;;;3.45;2.63;;;;;;;14.12;34.00;97990.97;10370580;28;20056;-53
2023/04/28 10:41:32;;;;;;;6.03;2.78;;;;;;;13.95;33.13;98007.66;10369855;28;20152;-53
2023/04/28 10:47:05;;;;;;;5.30;2.97;;;;;;;13.88;32.95;97982.53;10369784;28;20060;-54
2023/04/28 10:52:34;;;;;;;4.35;3.10;;;;;;;14.08;33.26;97981.47;10369558;28;20080;-54
2023/04/28 10:57:33;;;;;;;13.40;3.08;;;;;;;14.35;32.86;97965.44;10369504;28;20510;-54
2023/04/28 11:02:36;;;;;;;;;;;;;;;14.71;33.03;97965.88;10368456;28;21487;-53
2023/04/28 11:07:34;;;;;;;4.30;2.60;;;;;;;14.51;32.20;97954.81;10367730;28;19995;-53
2023/04/28 11:12:33;;;;;;;;;;;;;;;14.62;32.90;97952.91;10369769;28;20039;-54
2023/04/28 11:17:40;;;;;;;6.85;3.25;;;;;;;14.60;32.53;97955.53;10368113;28;20566;-54
2023/04/28 11:22:39;;;;;;;6.82;3.17;;;;;;;14.59;32.35;97953.84;10368310;28;20140;-54
2023/04/28 11:27:38;;;;;;;12.45;4.30;;;;;;;14.77;32.14;97952.72;10368399;28;20104;-53
2023/04/28 11:32:39;;;;;;;;;;;;;;;14.93;31.41;97940.28;10367009;28;20402;-53
2023/04/28 11:37:37;;;;;;;7.32;3.15;;;;;;;15.06;30.78;97938.38;10368602;28;20794;-54
2023/04/28 11:42:45;;;;;;;;;;;;;;;14.98;31.55;97929.78;10367998;28;20765;-54
2023/04/28 11:47:44;;;;;;;5.90;3.03;;;;;;;14.90;31.10;97923.81;10367070;28;19966;-54
2023/04/28 11:52:49;;;;;;;;;;;;;;;15.05;32.08;97920.94;10367538;28;20490;-54
2023/04/28 11:57:48;;;;;;;5.32;2.58;;;;;;;15.06;31.43;97921.78;10366964;28;20620;-54
2023/04/28 12:02:47;;;;;;;;;;;;;;;15.49;31.55;97908.84;10356600;28;20526;-54
2023/04/28 12:07:46;;;;;;;4.80;2.85;;;;;;;15.54;31.01;97846.84;10358698;28;19912;-54
2023/04/28 12:12:48;;;;;;;7.25;3.38;;;;;;;15.40;30.98;97895.94;10362741;28;20068;-54
2023/04/28 12:17:47;;;;;;;8.20;2.95;;;;;;;15.60;30.81;97896.44;10360666;28;20134;-54
2023/04/28 12:22:49;;;;;;;5.63;3.15;;;;;;;15.66;29.98;97875.38;10361629;28;20480;-54
2023/04/28 12:28:06;;;;;;;6.97;3.53;;;;;;;16.02;31.47;97888.69;10363158;28;20044;-54
2023/04/28 12:33:05;;;;;;;4.35;3.33;;;;;;;15.87;30.54;97881.13;10359830;28;20128;-54
2023/04/28 12:38:04;;;;;;;6.00;3.17;;;;;;;15.77;30.47;97876.94;10361726;28;20031;-54
2023/04/28 12:43:03;;;;;;;5.85;3.00;;;;;;;16.03;30.76;97865.97;10360009;28;20120;-54
2023/04/28 12:48:02;;;;;;;9.20;3.03;;;;;;;15.83;30.68;97828.00;10360938;28;20036;-54
2023/04/28 12:53:01;;;;;;;6.07;3.05;;;;;;;15.90;30.23;97861.88;10361572;28;20140;-54
2023/04/28 12:58:00;;;;;;;8.80;3.20;;;;;;;15.90;31.07;97860.13;10359873;28;20041;-51
2023/04/28 13:02:58;;;;;;;;;;;;;;;16.07;30.45;97857.16;10361833;28;20124;-51
2023/04/28 13:07:58;;;;;;;6.23;3.20;;;;;;;15.96;30.27;97848.69;10361910;28;19948;-52
2023/04/28 13:12:57;;;;;;;7.20;3.00;;;;;;;15.82;30.86;97841.97;10360152;28;20064;-54
2023/04/28 13:17:58;;;;;;;5.97;2.90;;;;;;;16.16;30.35;97853.47;10361018;28;20149;-54
2023/04/28 13:22:57;;;;;;;6.53;2.95;;;;;;;16.25;29.75;97842.78;10359545;28;20171;-54
2023/04/28 13:27:56;;;;;;;9.15;3.15;;;;;;;16.29;30.00;97841.84;10359608;28;20504;-55
2023/04/28 13:32:55;;;;;;;6.57;3.35;;;;;;;16.25;29.37;97841.03;10360869;28;20067;-55
2023/04/28 13:38:00;;;;;;;4.95;2.58;;;;;;;16.02;29.39;97838.06;10358837;28;20116;-55
2023/04/28 13:42:59;;;;;;;4.50;2.53;;;;;;;15.82;30.45;97836.72;10358286;28;20475;-51
2023/04/28 13:47:58;;;;;;;6.57;2.88;;;;;;;16.01;30.15;97834.59;10359238;28;20518;-52
2023/04/28 13:52:57;;;;;;;6.47;2.47;;;;;;;16.41;30.10;97815.34;10358451;28;20487;-52
2023/04/28 13:58:00;;;;;;;;;;;;;;;16.29;29.23;97837.47;10367757;28;20033;-52
2023/04/28 14:03:00;;;;;;;5.72;3.00;;;;;;;16.40;30.04;97839.84;10368365;28;20413;-52
2023/04/28 14:08:00;;;;;;;6.75;3.00;;;;;;;16.50;29.53;97833.47;10367204;28;20048;-54
2023/04/28 14:12:59;;;;;;;5.47;2.83;;;;;;;16.55;28.94;97832.53;10366609;28;20482;-54
2023/04/28 14:17:58;;;;;;;8.27;3.30;;;;;;;16.48;30.64;97824.78;10368249;28;20510;-55
2023/04/28 14:22:58;;;;;;;3.75;2.78;;;;;;;16.27;31.56;97827.91;10366211;28;20068;-55
2023/04/28 14:27:57;;;;;;;7.50;2.78;;;;;;;15.95;31.88;97816.41;10366496;28;20064;-54
2023/04/28 14:32:56;;;;;;;4.45;2.72;;;;;;;15.91;31.22;97821.75;10366191;28;20032;-54
2023/04/28 14:37:55;;;;;;;6.18;3.00;;;;;;;15.97;30.92;97817.22;10363990;28;20505;-54
2023/04/28 14:42:54;;;;;;;7.05;3.10;;;;;;;15.86;31.31;97814.00;10365125;28;20471;-54
2023/04/28 14:47:53;;;;;;;4.85;3.47;;;;;;;15.77;31.97;97814.16;10368005;28;20510;-53
2023/04/28 14:52:52;;;;;;;;;;;;;;;15.58;31.93;97817.13;10366365;28;20530;-54
2023/04/28 14:57:51;;;;;;;4.07;3.00;;;;;;;15.71;32.16;97803.81;10361095;28;20523;-54
2023/04/28 15:02:50;;;;;;;;;;;;;;;15.51;31.87;97797.25;10366100;28;20514;-54
2023/04/28 15:07:49;;;;;;;9.37;3.23;;;;;;;15.54;32.41;97815.47;10363696;28;19920;-53
2023/04/28 15:12:48;;;;;;;6.57;3.17;;;;;;;15.29;32.08;97801.16;10361946;28;20139;-54
2023/04/28 15:17:47;;;;;;;6.13;3.65;;;;;;;15.33;32.33;97815.91;10363581;28;20087;-53
2023/04/28 15:22:46;;;;;;;;;;;;;;;15.45;32.71;97815.66;10366023;28;20033;-54
2023/04/28 15:27:45;;;;;;;7.73;4.67;;;;;;;15.53;33.09;97808.53;10363965;28;20397;-53
2023/04/28 15:32:43;;;;;;;;;;;;;;;15.28;32.97;97817.75;10364672;28;20131;-51
2023/04/28 15:37:46;;;;;;;6.10;3.40;;;;;;;15.11;33.72;97818.91;10362355;28;20216;-51
2023/04/28 15:42:48;;;;;;;9.27;3.67;;;;;;;15.03;33.22;97792.03;10362900;28;20120;-51
2023/04/28 15:47:50;;;;;;;4.80;3.33;;;;;;;14.76;33.08;97752.47;10363553;28;20064;-51
2023/04/28 15:52:50;;;;;;;6.07;3.28;;;;;;;15.07;33.60;97783.25;10362813;28;20645;-51
2023/04/28 15:57:49;;;;;;;7.05;3.60;;;;;;;14.96;34.02;97788.66;10363116;28;20115;-51
2023/04/28 16:02:48;;;;;;;8.38;3.50;;;;;;;14.47;34.78;97744.22;10362482;28;20095;-50
2023/04/28 16:07:48;;;;;;;;;;;;;;;14.72;34.98;97791.72;10365557;28;20040;-51
2023/04/28 16:12:47;;;;;;;6.05;3.45;;;;;;;14.60;35.40;97793.63;10362788;28;19996;-50
2023/04/28 16:17:47;;;;;;;;;;;;;;;14.54;34.92;97800.69;10361293;28;20117;-51
2023/04/28 16:22:46;;;;;;;;;;;;;;;14.70;34.78;97781.31;10362791;28;19936;-50
2023/04/28 16:27:45;;;;;;;5.93;3.60;;;;;;;14.55;36.13;97802.44;10362196;28;19952;-51
2023/04/28 16:32:44;;;;;;;;;;;;;;;14.63;35.99;97795.31;10361563;28;20067;-50
2023/04/28 16:37:43;;;;;;;11.02;6.38;;;;;;;14.56;36.21;97818.06;10363101;28;19921;-52
2023/04/28 16:42:43;;;;;;;;;;;;;;;14.43;36.88;97818.25;10363509;28;20132;-50
2023/04/28 16:47:43;;;;;;;11.23;6.70;;;;;;;14.25;37.29;97816.81;10362953;28;19952;-51
2023/04/28 16:52:42;;;;;;;12.43;5.57;;;;;;;14.06;37.76;97821.44;10361792;28;20132;-50
2023/04/28 16:57:41;;;;;;;9.85;5.53;;;;;;;13.80;37.63;97826.97;10361669;28;20426;-50
2023/04/28 17:02:40;;;;;;;10.40;5.22;;;;;;;13.68;38.47;97825.38;10358693;28;20424;-52
2023/04/28 17:07:39;;;;;;;;;;;;;;;13.54;38.62;97834.25;10359634;28;20570;-53
2023/04/28 17:12:38;;;;;;;9.85;5.80;;;;;;;13.34;39.03;97830.97;10360191;28;20397;-53
2023/04/28 17:17:37;;;;;;;;;;;;;;;13.18;39.45;97826.81;10360469;28;20083;-53
2023/04/28 17:22:36;;;;;;;8.73;5.10;;;;;;;12.97;39.83;97836.53;10358220;28;19921;-53
2023/04/28 17:27:35;;;;;;;12.70;7.22;;;;;;;12.87;39.95;97847.94;10359707;28;20111;-53
2023/04/28 17:32:35;;;;;;;;;;;;;;;12.76;39.77;97848.00;10356631;28;20589;-53
2023/04/28 17:37:36;;;;;;;11.70;7.50;;;;;;;12.33;40.76;97793.69;10359364;28;20323;-53
2023/04/28 17:42:34;;;;;;;12.55;7.78;;;;;;;12.41;40.60;97841.34;10358738;28;20132;-51
2023/04/28 17:47:33;;;;;;;19.42;10.02;;;;;;;12.27;41.31;97840.53;10357872;28;20140;-53
2023/04/28 17:52:32;;;;;;;20.70;12.10;;;;;;;12.22;42.94;97845.75;10358779;28;20128;-53
2023/04/28 17:57:31;;;;;;;21.52;13.40;;;;;;;12.17;44.48;97864.88;10360762;28;20049;-53
2023/04/28 18:02:31;;;;;;;16.45;9.98;;;;;;;12.03;43.98;97865.81;10351632;28;20041;-53
2023/04/28 18:07:29;;;;;;;;;;;;;;;11.70;45.68;97876.38;10351849;28;20573;-53
2023/04/28 18:12:29;;;;;;;23.63;12.85;;;;;;;11.51;46.41;97893.75;10356019;28;20587;-52
2023/04/28 18:17:28;;;;;;;22.52;10.05;;;;;;;11.33;46.89;97899.84;10359914;28;20076;-53
2023/04/28 18:22:27;;;;;;;19.83;9.38;;;;;;;11.18;46.75;97908.53;10358003;28;20152;-53
2023/04/28 18:27:26;;;;;;;12.00;7.43;;;;;;;10.84;48.11;97913.69;10357648;28;20045;-52
2023/04/28 18:32:25;;;;;;;20.92;10.60;;;;;;;10.51;48.74;97876.47;10358224;28;20025;-52
2023/04/28 18:37:23;;;;;;;15.98;8.10;;;;;;;10.57;49.10;97909.34;10359823;28;20124;-53
2023/04/28 18:42:23;;;;;;;16.27;9.35;;;;;;;10.56;48.99;97908.47;10363468;28;20031;-52
2023/04/28 18:47:22;;;;;;;;;;;;;;;10.47;48.30;97903.28;10366285;28;20153;-53
2023/04/28 18:52:20;;;;;;;17.25;9.68;;;;;;;10.39;48.60;97905.84;10365433;28;19921;-52
2023/04/28 18:57:19;;;;;;;28.67;14.40;;;;;;;10.29;50.01;97909.28;10364654;28;20111;-51
2023/04/28 19:02:18;;;;;;;22.33;12.52;;;;;;;10.16;50.28;97908.38;10365455;28;20033;-52
2023/04/28 19:07:18;;;;;;;20.77;11.18;;;;;;;10.03;50.55;97910.91;10365681;28;20044;-52
2023/04/28 19:12:16;;;;;;;;;;;;;;;9.93;51.79;97904.84;10367103;28;20234;-51
2023/04/28 19:17:15;;;;;;;20.15;9.95;;;;;;;9.78;51.72;97911.69;10364631;28;20050;-50
2023/04/28 19:22:30;;;;;;;13.73;8.32;;;;;;;9.58;52.55;97910.72;10362755;28;20029;-50
2023/04/28 19:27:31;;;;;;;26.30;17.45;;;;;;;9.45;53.35;97914.13;10365554;28;20068;-51
2023/04/28 19:32:30;;;;;;;25.50;16.38;;;;;;;9.14;54.76;97906.97;10365030;28;20064;-50
2023/04/28 19:37:30;;;;;;;23.35;15.73;;;;;;;9.01;55.69;97905.16;10363552;28;20508;-50
2023/04/28 19:42:30;;;;;;;26.55;16.17;;;;;;;8.48;56.08;97825.38;10363764;28;20136;-52
2023/04/28 19:47:32;;;;;;;29.30;17.15;;;;;;;8.78;58.32;97902.38;10363948;28;20079;-52
2023/04/28 19:52:31;;;;;;;31.08;19.50;;;;;;;8.60;58.82;97905.69;10362453;28;20116;-52
2023/04/28 19:57:30;;;;;;;;;;;;;;;8.57;59.03;97909.94;10358906;28;20141;-53
2023/04/28 20:02:29;;;;;;;21.73;14.23;;;;;;;8.49;58.92;97907.28;10358594;28;20015;-53
2023/04/28 20:07:28;;;;;;;23.00;13.02;;;;;;;8.42;59.56;97898.59;10358985;28;20076;-52
2023/04/28 20:12:27;;;;;;;26.83;14.90;;;;;;;8.23;60.79;97887.22;10361011;28;20110;-51
2023/04/28 20:17:26;;;;;;;20.70;12.93;;;;;;;8.18;61.11;97895.78;10361685;28;20080;-52
2023/04/28 20:22:26;;;;;;;19.63;12.07;;;;;;;7.97;61.41;97878.31;10361560;28;20052;-52
2023/04/28 20:27:25;;;;;;;27.13;14.23;;;;;;;8.00;61.70;97876.63;10362025;28;20458;-53
2023/04/28 20:32:25;;;;;;;22.02;14.35;;;;;;;7.98;61.36;97886.06;10361978;28;20060;-53
2023/04/28 20:37:25;;;;;;;24.20;14.93;;;;;;;7.89;61.55;97880.78;10362325;28;20139;-52
2023/04/28 20:42:25;;;;;;;24.65;15.90;;;;;;;7.79;62.08;97868.63;10361989;28;20400;-53
2023/04/28 20:47:24;;;;;;;29.55;18.33;;;;;;;7.69;62.83;97880.56;10360886;28;20080;-50
2023/04/28 20:52:23;;;;;;;35.13;22.33;;;;;;;7.53;63.61;97869.19;10361096;28;20574;-52
2023/04/28 20:57:22;;;;;;;37.42;22.27;;;;;;;7.43;65.89;97880.25;10361074;28;20431;-53
2023/04/28 21:02:20;;;;;;;27.27;15.93;;;;;;;7.49;64.92;97875.16;10359527;28;20044;-52
2023/04/28 21:07:19;;;;;;;20.40;13.02;;;;;;;7.40;65.08;97859.53;10360169;28;20123;-52
2023/04/28 21:12:18;;;;;;;29.77;16.63;;;;;;;7.33;65.14;97870.59;10361994;28;20027;-53
2023/04/28 21:17:17;;;;;;;26.95;16.33;;;;;;;7.23;65.24;97867.00;10359623;28;20116;-52
2023/04/28 21:22:16;;;;;;;28.50;16.27;;;;;;;7.17;65.38;97872.97;10359131;28;20036;-52
2023/04/28 21:27:15;;;;;;;24.52;14.25;;;;;;;7.11;66.52;97870.28;10358290;28;20107;-52
2023/04/28 21:32:14;;;;;;;22.60;14.07;;;;;;;6.95;68.16;97873.50;10360541;28;20033;-52
2023/04/28 21:37:13;;;;;;;15.50;10.25;;;;;;;6.77;69.44;97871.47;10360032;28;20115;-53
2023/04/28 21:42:12;;;;;;;24.98;12.80;;;;;;;6.62;70.06;97877.28;10359827;28;20098;-52
2023/04/28 21:47:11;;;;;;;19.00;13.48;;;;;;;6.49;70.44;97877.91;10359163;28;20061;-51
2023/04/28 21:52:10;;;;;;;23.98;16.77;;;;;;;6.31;70.31;97852.69;10359000;28;20032;-52
2023/04/28 21:57:09;;;;;;;25.73;17.27;;;;;;;6.27;71.55;97864.63;10359689;28;20601;-52
2023/04/28 22:02:08;;;;;;;24.23;17.52;;;;;;;6.18;71.77;97880.78;10359023;28;20419;-52
2023/04/28 22:07:07;;;;;;;28.02;18.30;;;;;;;6.15;71.45;97864.44;10358313;28;20527;-50
2023/04/28 22:12:06;;;;;;;26.48;18.02;;;;;;;5.16;71.11;97696.97;10357495;28;20498;-52
2023/04/28 22:17:05;;;;;;;24.30;16.33;;;;;;;6.05;71.43;97857.38;10360125;28;20737;-49
2023/04/28 22:22:04;;;;;;;26.30;16.70;;;;;;;6.03;71.97;97859.06;10363815;28;20573;-50
2023/04/28 22:27:03;;;;;;;;;;;;;;;5.94;71.75;97852.88;10364987;28;20549;-53
2023/04/28 22:32:02;;;;;;;21.30;14.63;;;;;;;5.89;72.04;97843.34;10366453;28;20367;-52
2023/04/28 22:37:01;;;;;;;21.33;14.55;;;;;;;5.70;72.58;97817.25;10366282;28;20028;-51
2023/04/28 22:42:00;;;;;;;27.52;18.20;;;;;;;5.69;73.43;97827.50;10366565;28;20124;-52
2023/04/28 22:46:59;;;;;;;22.70;16.63;;;;;;;5.67;73.54;97839.47;10366754;28;20143;-53
2023/04/28 22:51:58;;;;;;;26.98;16.13;;;;;;;5.53;73.61;97821.16;10366175;28;20048;-52
2023/04/28 22:56:58;;;;;;;28.77;17.20;;;;;;;5.61;74.07;97827.34;10364706;28;20079;-50
2023/04/28 23:01:57;;;;;;;30.05;18.95;;;;;;;5.22;74.54;97758.81;10366070;28;20509;-52
2023/04/28 23:06:56;;;;;;;23.40;16.55;;;;;;;5.54;74.77;97823.78;10365306;28;20479;-51
2023/04/28 23:11:55;;;;;;;22.13;15.25;;;;;;;5.47;74.79;97821.94;10365181;28;20148;-51
2023/04/28 23:16:54;;;;;;;21.52;15.77;;;;;;;5.42;74.76;97807.25;10365505;28;20498;-53
2023/04/28 23:21:53;;;;;;;24.95;14.80;;;;;;;5.37;74.83;97786.56;10364023;28;20152;-52
2023/04/28 23:26:52;;;;;;;22.40;15.02;;;;;;;5.32;75.57;97788.16;10363415;28;20051;-53